METAR UND TAF INFORMATION
EKVG 010520Z AUTO 13009KT 9999 -RA OVC009/// 11/10 Q1008 RMK OVC005/// WIND SKEID 14019KT

 FLUGHAFENKARTE

 RUNWAY INFORMATION
Runway 13 Runway length 5902 ft Runway width 98 ft
Runway elevation 268 ft Runway displaced threshold 0 ft Runway heading 118
Runway 31 Runway length 5902 ft Runway width 98 ft
Runway elevation 252 ft Runway displaced threshold 0 ft Runway heading 298

 AIRPORT FREQUENCIES
Type AFIS Name AFIS Frequency 124.85 MHZ

 AIRPORT NEAR NAVIGATION AIDS
Type NDB Name Myggenes Frequency 337 KHZ
Type NDB Name Nolso Frequency 404 KHZ
Type NDB Name Vagar Frequency 348 KHZ